Flight Track Log - Related Links

Times and Time Zones

All times are in EDT time to prevent confusion due to time zone crossing. See the ASQ4086 flight status page for this flight to view local times or setup timezone preferences in your user account.


Time Position Orientation Groundspeed Altitude Reporting Facility
EDT Latitude Longitude Course Direction KTS MPH feet Rate Location/Type
Mon 11:02:00 AM 29.8044 -95.8631 247° West  Level FlightAware Approximate
Mon 11:03:00 AM 29.7667 -95.9680 270° West  Level FlightAware Approximate
Mon 11:04:00 AM 29.7667 -96.0817 270° West  Level FlightAware Approximate
Mon 11:05:00 AM 29.7667 -96.1954 270° West  Level FlightAware Approximate
Mon 11:06:00 AM 29.7861 -96.3053 275° West  Level FlightAware Approximate
Mon 11:07:00 AM 29.7942 -96.4186 275° West  Level FlightAware Approximate
Mon 11:08:00 AM 29.8000 -96.5320 270° West  Level FlightAware Approximate
Mon 11:09:00 AM 29.8087 -96.6451 277° West  Level FlightAware Approximate
Mon 11:10:00 AM 29.8167 -96.7582 270° West  Level FlightAware Approximate
Mon 11:11:00 AM 29.8167 -96.8719 270° West  Level FlightAware Approximate
Mon 11:12:00 AM 29.8333 -96.9805 270° West  Level FlightAware Approximate
Mon 11:13:00 AM 29.8361 -97.0940 277° West  Level FlightAware Approximate
Mon 11:14:00 AM 29.8474 -97.2070 277° West  Level FlightAware Approximate
Mon 11:15:00 AM 29.8509 -97.3204 286° West  Level FlightAware Approximate
Mon 11:16:00 AM 29.8667 -97.4316 270° West  Level FlightAware Approximate
Mon 11:17:00 AM 29.8742 -97.5450 274° West  Level FlightAware Approximate
Mon 11:18:00 AM 29.8817 -97.6585 274° West  Level FlightAware Approximate
Mon 11:19:00 AM 29.8834 -97.7722 270° West  Level FlightAware Approximate
Mon 11:20:00 AM 29.8695 -97.8822 244° Southwest  Level FlightAware Approximate
Mon 11:21:00 AM 29.8262 -97.9844 245° Southwest  Level FlightAware Approximate
Mon 11:22:00 AM 29.7728 -98.0772 221° Southwest  Level FlightAware Approximate
Mon 11:23:00 AM 29.6983 -98.1517 221° Southwest  Level FlightAware Approximate
Mon 11:24:00 AM 29.6239 -98.2262 221° Southwest  Level FlightAware Approximate
Mon 11:25:00 AM 29.5494 -98.3006 221° Southwest  Level FlightAware Approximate
Mon 11:26:00 AM 29.4750 -98.3750 221° Southwest  Level FlightAware Approximate
Mon 11:27:00 AM 29.4006 -98.4494 221° Southwest  Level FlightAware Approximate
Mon 11:28:00 AM 29.3251 -98.5187 227° Southwest  Level FlightAware Approximate
Mon 11:29:00 AM 29.3598 -98.5356 16° North  Level FlightAware Approximate
Mon 11:30:00 AM 29.4412 -98.5002 19° North  Level FlightAware Approximate
Mon 11:31:00 AM 29.5333 -98.4667 16° North  Level FlightAware Approximate
Mon 11:32:00 AM 29.5340 -98.4691 16° North  Level Estimated
Mon 11:33:00 AM 29.5333 -98.4667 16° North  Level FlightAware Approximate
Mon 11:34:00 AM 29.5340 -98.4691 16° North  Level Estimated
Mon 11:35:00 AM 29.5333 -98.4667 16° North  Level FlightAware Approximate
Mon 11:36:00 AM 29.5340 -98.4691 16° North  Level Estimated
Mon 11:37:00 AM 29.5333 -98.4667 16° North  Level FlightAware Approximate
Mon 11:38:00 AM 29.5340 -98.4691 16° North  Level Estimated

Login

Don't have an account? Register now (free) for customized features, flight alerts, and more!